sensor_id;sensor_type;location;lat;lon;timestamp;P1;durP1;ratioP1;P2;durP2;ratioP2
28587;SDS011;15787;49.662;10.162;2023-08-20T00:01:40;11.93;;;6.93;;
28587;SDS011;15787;49.662;10.162;2023-08-20T00:04:14;8.38;;;6.28;;
28587;SDS011;15787;49.662;10.162;2023-08-20T00:06:49;11.85;;;6.32;;
28587;SDS011;15787;49.662;10.162;2023-08-20T00:09:23;10.95;;;6.72;;
28587;SDS011;15787;49.662;10.162;2023-08-20T00:11:58;10.13;;;5.93;;
28587;SDS011;15787;49.662;10.162;2023-08-20T00:14:52;10.57;;;6.07;;
28587;SDS011;15787;49.662;10.162;2023-08-20T00:17:28;11.30;;;5.85;;
28587;SDS011;15787;49.662;10.162;2023-08-20T00:20:02;8.73;;;6.07;;
28587;SDS011;15787;49.662;10.162;2023-08-20T00:22:43;7.35;;;6.03;;
28587;SDS011;15787;49.662;10.162;2023-08-20T00:25:17;8.63;;;6.32;;
28587;SDS011;15787;49.662;10.162;2023-08-20T00:27:50;7.82;;;5.97;;
28587;SDS011;15787;49.662;10.162;2023-08-20T00:30:24;9.90;;;6.05;;
28587;SDS011;15787;49.662;10.162;2023-08-20T00:32:59;14.65;;;6.47;;
28587;SDS011;15787;49.662;10.162;2023-08-20T00:35:33;7.97;;;5.93;;
28587;SDS011;15787;49.662;10.162;2023-08-20T00:38:08;9.15;;;6.25;;
28587;SDS011;15787;49.662;10.162;2023-08-20T00:40:41;8.30;;;6.43;;
28587;SDS011;15787;49.662;10.162;2023-08-20T00:43:15;9.55;;;6.28;;
28587;SDS011;15787;49.662;10.162;2023-08-20T00:45:48;9.00;;;5.93;;
28587;SDS011;15787;49.662;10.162;2023-08-20T00:48:21;10.13;;;6.60;;
28587;SDS011;15787;49.662;10.162;2023-08-20T00:50:55;9.98;;;6.38;;
28587;SDS011;15787;49.662;10.162;2023-08-20T00:53:30;12.43;;;6.90;;
28587;SDS011;15787;49.662;10.162;2023-08-20T00:56:03;8.80;;;6.05;;
28587;SDS011;15787;49.662;10.162;2023-08-20T00:58:36;12.10;;;6.75;;
28587;SDS011;15787;49.662;10.162;2023-08-20T01:01:10;9.35;;;6.50;;
28587;SDS011;15787;49.662;10.162;2023-08-20T01:03:43;11.98;;;6.80;;
28587;SDS011;15787;49.662;10.162;2023-08-20T01:06:19;14.68;;;7.95;;
28587;SDS011;15787;49.662;10.162;2023-08-20T01:08:58;11.70;;;6.90;;
28587;SDS011;15787;49.662;10.162;2023-08-20T01:11:40;8.63;;;5.97;;
28587;SDS011;15787;49.662;10.162;2023-08-20T01:14:20;10.60;;;6.63;;
28587;SDS011;15787;49.662;10.162;2023-08-20T01:16:53;10.15;;;6.63;;
28587;SDS011;15787;49.662;10.162;2023-08-20T01:19:27;11.35;;;6.85;;
28587;SDS011;15787;49.662;10.162;2023-08-20T01:22:04;10.70;;;6.25;;
28587;SDS011;15787;49.662;10.162;2023-08-20T01:24:51;13.10;;;6.85;;
28587;SDS011;15787;49.662;10.162;2023-08-20T01:27:38;9.27;;;6.60;;
28587;SDS011;15787;49.662;10.162;2023-08-20T01:30:21;11.13;;;7.22;;
28587;SDS011;15787;49.662;10.162;2023-08-20T01:32:55;13.25;;;7.32;;
28587;SDS011;15787;49.662;10.162;2023-08-20T01:35:33;10.55;;;7.25;;
28587;SDS011;15787;49.662;10.162;2023-08-20T01:38:06;8.32;;;6.88;;
28587;SDS011;15787;49.662;10.162;2023-08-20T01:40:40;13.30;;;7.43;;
28587;SDS011;15787;49.662;10.162;2023-08-20T01:43:13;11.10;;;7.70;;
28587;SDS011;15787;49.662;10.162;2023-08-20T01:45:48;11.57;;;7.35;;
28587;SDS011;15787;49.662;10.162;2023-08-20T01:48:21;11.20;;;8.95;;
28587;SDS011;15787;49.662;10.162;2023-08-20T01:50:54;9.27;;;7.38;;
28587;SDS011;15787;49.662;10.162;2023-08-20T01:53:27;10.73;;;8.10;;
28587;SDS011;15787;49.662;10.162;2023-08-20T01:56:00;12.45;;;8.02;;
28587;SDS011;15787;49.662;10.162;2023-08-20T01:58:34;11.15;;;7.65;;
28587;SDS011;15787;49.662;10.162;2023-08-20T02:01:10;11.02;;;6.85;;
28587;SDS011;15787;49.662;10.162;2023-08-20T02:03:43;11.63;;;7.80;;
28587;SDS011;15787;49.662;10.162;2023-08-20T02:06:17;10.65;;;7.93;;
28587;SDS011;15787;49.662;10.162;2023-08-20T02:08:52;12.48;;;8.25;;
28587;SDS011;15787;49.662;10.162;2023-08-20T02:11:28;11.95;;;8.05;;
28587;SDS011;15787;49.662;10.162;2023-08-20T02:14:08;11.27;;;7.63;;
28587;SDS011;15787;49.662;10.162;2023-08-20T02:16:50;10.77;;;7.35;;
28587;SDS011;15787;49.662;10.162;2023-08-20T02:19:25;14.02;;;7.40;;
28587;SDS011;15787;49.662;10.162;2023-08-20T02:22:01;12.10;;;7.20;;
28587;SDS011;15787;49.662;10.162;2023-08-20T02:24:38;11.32;;;8.05;;
28587;SDS011;15787;49.662;10.162;2023-08-20T02:27:15;8.95;;;7.20;;
28587;SDS011;15787;49.662;10.162;2023-08-20T02:32:34;11.18;;;7.25;;
28587;SDS011;15787;49.662;10.162;2023-08-20T02:35:09;13.48;;;7.10;;
28587;SDS011;15787;49.662;10.162;2023-08-20T02:37:56;8.50;;;6.50;;
28587;SDS011;15787;49.662;10.162;2023-08-20T02:40:32;9.52;;;6.75;;
28587;SDS011;15787;49.662;10.162;2023-08-20T02:43:11;12.63;;;7.20;;
28587;SDS011;15787;49.662;10.162;2023-08-20T02:45:48;9.98;;;7.28;;
28587;SDS011;15787;49.662;10.162;2023-08-20T02:48:24;9.93;;;6.75;;
28587;SDS011;15787;49.662;10.162;2023-08-20T02:51:02;12.37;;;6.63;;
28587;SDS011;15787;49.662;10.162;2023-08-20T02:53:40;11.75;;;7.57;;
28587;SDS011;15787;49.662;10.162;2023-08-20T02:56:16;14.63;;;8.00;;
28587;SDS011;15787;49.662;10.162;2023-08-20T02:58:53;13.40;;;8.13;;
28587;SDS011;15787;49.662;10.162;2023-08-20T03:01:32;12.82;;;8.20;;
28587;SDS011;15787;49.662;10.162;2023-08-20T03:04:13;11.45;;;8.07;;
28587;SDS011;15787;49.662;10.162;2023-08-20T03:06:48;11.57;;;7.97;;
28587;SDS011;15787;49.662;10.162;2023-08-20T03:09:26;13.50;;;9.38;;
28587;SDS011;15787;49.662;10.162;2023-08-20T03:12:00;14.18;;;8.52;;
28587;SDS011;15787;49.662;10.162;2023-08-20T03:14:42;14.35;;;9.15;;
28587;SDS011;15787;49.662;10.162;2023-08-20T03:17:16;9.77;;;7.60;;
28587;SDS011;15787;49.662;10.162;2023-08-20T03:20:01;14.70;;;8.73;;
28587;SDS011;15787;49.662;10.162;2023-08-20T03:22:39;14.93;;;8.50;;
28587;SDS011;15787;49.662;10.162;2023-08-20T03:25:16;16.40;;;8.15;;
28587;SDS011;15787;49.662;10.162;2023-08-20T03:27:55;12.30;;;7.47;;
28587;SDS011;15787;49.662;10.162;2023-08-20T03:30:29;9.63;;;7.47;;
28587;SDS011;15787;49.662;10.162;2023-08-20T03:33:07;12.05;;;7.90;;
28587;SDS011;15787;49.662;10.162;2023-08-20T03:35:46;11.13;;;8.07;;
28587;SDS011;15787;49.662;10.162;2023-08-20T03:38:33;11.55;;;7.63;;
28587;SDS011;15787;49.662;10.162;2023-08-20T03:41:09;9.90;;;7.65;;
28587;SDS011;15787;49.662;10.162;2023-08-20T03:43:50;10.68;;;7.13;;
28587;SDS011;15787;49.662;10.162;2023-08-20T03:46:26;11.10;;;7.45;;
28587;SDS011;15787;49.662;10.162;2023-08-20T03:49:04;12.45;;;8.27;;
28587;SDS011;15787;49.662;10.162;2023-08-20T03:51:44;10.85;;;8.05;;
28587;SDS011;15787;49.662;10.162;2023-08-20T03:54:20;13.40;;;7.95;;
28587;SDS011;15787;49.662;10.162;2023-08-20T03:56:56;14.82;;;8.48;;
28587;SDS011;15787;49.662;10.162;2023-08-20T03:59:34;14.00;;;8.18;;
28587;SDS011;15787;49.662;10.162;2023-08-20T04:02:10;16.00;;;8.55;;
28587;SDS011;15787;49.662;10.162;2023-08-20T04:04:46;13.13;;;7.75;;
28587;SDS011;15787;49.662;10.162;2023-08-20T04:07:24;12.65;;;8.75;;
28587;SDS011;15787;49.662;10.162;2023-08-20T04:10:01;16.52;;;8.77;;
28587;SDS011;15787;49.662;10.162;2023-08-20T04:12:36;13.50;;;8.18;;
28587;SDS011;15787;49.662;10.162;2023-08-20T04:15:16;12.25;;;8.32;;
28587;SDS011;15787;49.662;10.162;2023-08-20T04:17:52;11.07;;;8.30;;
28587;SDS011;15787;49.662;10.162;2023-08-20T04:20:36;12.30;;;7.90;;
28587;SDS011;15787;49.662;10.162;2023-08-20T04:23:11;14.43;;;8.23;;
28587;SDS011;15787;49.662;10.162;2023-08-20T04:25:49;13.48;;;9.02;;
28587;SDS011;15787;49.662;10.162;2023-08-20T04:28:25;10.43;;;8.05;;
28587;SDS011;15787;49.662;10.162;2023-08-20T04:31:03;13.43;;;7.97;;
28587;SDS011;15787;49.662;10.162;2023-08-20T04:33:53;12.55;;;8.45;;
28587;SDS011;15787;49.662;10.162;2023-08-20T04:36:37;10.60;;;8.27;;
28587;SDS011;15787;49.662;10.162;2023-08-20T04:39:15;12.48;;;8.23;;
28587;SDS011;15787;49.662;10.162;2023-08-20T04:41:57;14.52;;;8.30;;
28587;SDS011;15787;49.662;10.162;2023-08-20T04:44:36;12.23;;;8.10;;
28587;SDS011;15787;49.662;10.162;2023-08-20T04:47:17;12.88;;;7.82;;
28587;SDS011;15787;49.662;10.162;2023-08-20T04:49:53;13.77;;;8.35;;
28587;SDS011;15787;49.662;10.162;2023-08-20T04:52:31;14.65;;;8.18;;
28587;SDS011;15787;49.662;10.162;2023-08-20T04:55:08;15.13;;;9.48;;
28587;SDS011;15787;49.662;10.162;2023-08-20T04:57:50;14.88;;;8.90;;
28587;SDS011;15787;49.662;10.162;2023-08-20T05:00:25;10.93;;;8.88;;
28587;SDS011;15787;49.662;10.162;2023-08-20T05:03:12;18.20;;;10.00;;
28587;SDS011;15787;49.662;10.162;2023-08-20T05:05:48;16.27;;;10.18;;
28587;SDS011;15787;49.662;10.162;2023-08-20T05:08:30;13.40;;;9.00;;
28587;SDS011;15787;49.662;10.162;2023-08-20T05:11:08;13.35;;;9.30;;
28587;SDS011;15787;49.662;10.162;2023-08-20T05:13:44;14.73;;;9.60;;
28587;SDS011;15787;49.662;10.162;2023-08-20T05:16:21;14.43;;;9.57;;
28587;SDS011;15787;49.662;10.162;2023-08-20T05:18:58;13.80;;;9.05;;
28587;SDS011;15787;49.662;10.162;2023-08-20T05:21:34;15.10;;;9.10;;
28587;SDS011;15787;49.662;10.162;2023-08-20T05:24:10;14.25;;;8.35;;
28587;SDS011;15787;49.662;10.162;2023-08-20T05:26:49;14.25;;;8.65;;
28587;SDS011;15787;49.662;10.162;2023-08-20T05:29:44;11.43;;;9.27;;
28587;SDS011;15787;49.662;10.162;2023-08-20T05:32:18;12.38;;;9.02;;
28587;SDS011;15787;49.662;10.162;2023-08-20T05:34:57;13.15;;;9.05;;
28587;SDS011;15787;49.662;10.162;2023-08-20T05:37:31;15.02;;;9.75;;
28587;SDS011;15787;49.662;10.162;2023-08-20T05:40:11;10.70;;;8.38;;
28587;SDS011;15787;49.662;10.162;2023-08-20T05:42:48;11.77;;;8.70;;
28587;SDS011;15787;49.662;10.162;2023-08-20T05:45:28;17.58;;;9.70;;
28587;SDS011;15787;49.662;10.162;2023-08-20T05:48:02;14.10;;;9.48;;
28587;SDS011;15787;49.662;10.162;2023-08-20T05:50:39;10.70;;;8.80;;
28587;SDS011;15787;49.662;10.162;2023-08-20T05:53:16;13.02;;;8.90;;
28587;SDS011;15787;49.662;10.162;2023-08-20T05:55:53;12.60;;;8.55;;
28587;SDS011;15787;49.662;10.162;2023-08-20T05:58:32;11.48;;;9.07;;
28587;SDS011;15787;49.662;10.162;2023-08-20T06:01:07;11.70;;;8.57;;
28587;SDS011;15787;49.662;10.162;2023-08-20T06:03:43;11.00;;;8.65;;
28587;SDS011;15787;49.662;10.162;2023-08-20T06:06:21;13.45;;;8.55;;
28587;SDS011;15787;49.662;10.162;2023-08-20T06:09:00;12.55;;;9.80;;
28587;SDS011;15787;49.662;10.162;2023-08-20T06:11:41;14.18;;;8.60;;
28587;SDS011;15787;49.662;10.162;2023-08-20T06:14:19;13.13;;;8.60;;
28587;SDS011;15787;49.662;10.162;2023-08-20T06:17:02;11.40;;;8.43;;
28587;SDS011;15787;49.662;10.162;2023-08-20T06:19:36;10.52;;;8.70;;
28587;SDS011;15787;49.662;10.162;2023-08-20T06:22:16;14.77;;;8.23;;
28587;SDS011;15787;49.662;10.162;2023-08-20T06:24:52;11.07;;;8.65;;
28587;SDS011;15787;49.662;10.162;2023-08-20T06:27:30;12.38;;;8.25;;
28587;SDS011;15787;49.662;10.162;2023-08-20T06:30:08;13.23;;;8.52;;
28587;SDS011;15787;49.662;10.162;2023-08-20T06:32:49;10.60;;;7.80;;
28587;SDS011;15787;49.662;10.162;2023-08-20T06:35:25;13.48;;;8.57;;
28587;SDS011;15787;49.662;10.162;2023-08-20T06:38:01;10.43;;;7.88;;
28587;SDS011;15787;49.662;10.162;2023-08-20T06:40:36;9.68;;;7.43;;
28587;SDS011;15787;49.662;10.162;2023-08-20T06:43:12;11.55;;;8.55;;
28587;SDS011;15787;49.662;10.162;2023-08-20T06:45:49;10.75;;;8.00;;
28587;SDS011;15787;49.662;10.162;2023-08-20T06:48:27;13.43;;;8.30;;
28587;SDS011;15787;49.662;10.162;2023-08-20T06:51:07;10.45;;;7.63;;
28587;SDS011;15787;49.662;10.162;2023-08-20T06:53:45;9.93;;;6.97;;
28587;SDS011;15787;49.662;10.162;2023-08-20T06:56:21;9.27;;;7.47;;
28587;SDS011;15787;49.662;10.162;2023-08-20T06:59:00;13.70;;;7.18;;
28587;SDS011;15787;49.662;10.162;2023-08-20T07:01:37;12.27;;;7.22;;
28587;SDS011;15787;49.662;10.162;2023-08-20T07:04:17;9.50;;;6.38;;
28587;SDS011;15787;49.662;10.162;2023-08-20T07:06:50;8.18;;;7.10;;
28587;SDS011;15787;49.662;10.162;2023-08-20T07:09:31;11.20;;;7.05;;
28587;SDS011;15787;49.662;10.162;2023-08-20T07:12:10;10.55;;;6.55;;
28587;SDS011;15787;49.662;10.162;2023-08-20T07:14:43;9.48;;;6.20;;
28587;SDS011;15787;49.662;10.162;2023-08-20T07:17:18;9.90;;;6.63;;
28587;SDS011;15787;49.662;10.162;2023-08-20T07:19:52;9.40;;;7.20;;
28587;SDS011;15787;49.662;10.162;2023-08-20T07:22:25;12.18;;;7.05;;
28587;SDS011;15787;49.662;10.162;2023-08-20T07:24:58;8.45;;;6.45;;
28587;SDS011;15787;49.662;10.162;2023-08-20T07:27:31;9.75;;;6.22;;
28587;SDS011;15787;49.662;10.162;2023-08-20T07:30:05;10.48;;;6.18;;
28587;SDS011;15787;49.662;10.162;2023-08-20T07:32:41;8.35;;;5.93;;
28587;SDS011;15787;49.662;10.162;2023-08-20T07:35:14;12.85;;;6.50;;
28587;SDS011;15787;49.662;10.162;2023-08-20T07:37:47;10.15;;;6.07;;
28587;SDS011;15787;49.662;10.162;2023-08-20T07:40:21;13.50;;;6.25;;
28587;SDS011;15787;49.662;10.162;2023-08-20T07:42:54;8.80;;;6.35;;
28587;SDS011;15787;49.662;10.162;2023-08-20T07:45:27;7.20;;;5.53;;
28587;SDS011;15787;49.662;10.162;2023-08-20T07:48:03;7.15;;;5.78;;
28587;SDS011;15787;49.662;10.162;2023-08-20T07:50:38;11.15;;;5.88;;
28587;SDS011;15787;49.662;10.162;2023-08-20T07:53:11;7.68;;;5.88;;
28587;SDS011;15787;49.662;10.162;2023-08-20T07:55:44;9.23;;;6.20;;
28587;SDS011;15787;49.662;10.162;2023-08-20T07:58:19;10.43;;;5.85;;
28587;SDS011;15787;49.662;10.162;2023-08-20T08:00:52;7.43;;;5.63;;
28587;SDS011;15787;49.662;10.162;2023-08-20T08:03:27;8.60;;;6.47;;
28587;SDS011;15787;49.662;10.162;2023-08-20T08:06:01;7.93;;;5.57;;
28587;SDS011;15787;49.662;10.162;2023-08-20T08:08:34;7.80;;;6.10;;
28587;SDS011;15787;49.662;10.162;2023-08-20T08:11:07;12.55;;;6.53;;
28587;SDS011;15787;49.662;10.162;2023-08-20T08:13:42;9.45;;;6.15;;
28587;SDS011;15787;49.662;10.162;2023-08-20T08:16:15;8.95;;;5.15;;
28587;SDS011;15787;49.662;10.162;2023-08-20T08:18:50;8.88;;;5.40;;
28587;SDS011;15787;49.662;10.162;2023-08-20T08:21:23;10.52;;;5.90;;
28587;SDS011;15787;49.662;10.162;2023-08-20T08:23:56;7.25;;;5.30;;
28587;SDS011;15787;49.662;10.162;2023-08-20T08:26:30;8.43;;;5.57;;
28587;SDS011;15787;49.662;10.162;2023-08-20T08:29:04;9.63;;;5.50;;
28587;SDS011;15787;49.662;10.162;2023-08-20T08:31:38;9.93;;;5.75;;
28587;SDS011;15787;49.662;10.162;2023-08-20T08:34:13;7.15;;;5.15;;
28587;SDS011;15787;49.662;10.162;2023-08-20T08:36:47;6.47;;;5.32;;
28587;SDS011;15787;49.662;10.162;2023-08-20T08:39:20;7.72;;;5.07;;
28587;SDS011;15787;49.662;10.162;2023-08-20T08:41:54;12.85;;;5.55;;
28587;SDS011;15787;49.662;10.162;2023-08-20T08:44:33;6.40;;;5.30;;
28587;SDS011;15787;49.662;10.162;2023-08-20T08:47:09;5.95;;;4.97;;
28587;SDS011;15787;49.662;10.162;2023-08-20T08:49:44;9.43;;;5.13;;
28587;SDS011;15787;49.662;10.162;2023-08-20T08:52:19;5.55;;;4.90;;
28587;SDS011;15787;49.662;10.162;2023-08-20T08:54:53;9.63;;;5.63;;
28587;SDS011;15787;49.662;10.162;2023-08-20T08:57:26;8.93;;;6.25;;
28587;SDS011;15787;49.662;10.162;2023-08-20T09:00:00;7.38;;;5.30;;
28587;SDS011;15787;49.662;10.162;2023-08-20T09:02:33;7.78;;;5.70;;
28587;SDS011;15787;49.662;10.162;2023-08-20T09:05:08;9.10;;;5.55;;
28587;SDS011;15787;49.662;10.162;2023-08-20T09:07:42;12.35;;;5.50;;
28587;SDS011;15787;49.662;10.162;2023-08-20T09:10:16;6.10;;;4.95;;
28587;SDS011;15787;49.662;10.162;2023-08-20T09:12:50;10.23;;;4.90;;
28587;SDS011;15787;49.662;10.162;2023-08-20T09:15:29;8.68;;;4.72;;
28587;SDS011;15787;49.662;10.162;2023-08-20T09:18:04;7.03;;;5.20;;
28587;SDS011;15787;49.662;10.162;2023-08-20T09:20:43;9.00;;;5.28;;
28587;SDS011;15787;49.662;10.162;2023-08-20T09:23:16;7.55;;;4.30;;
28587;SDS011;15787;49.662;10.162;2023-08-20T09:25:49;8.90;;;5.45;;
28587;SDS011;15787;49.662;10.162;2023-08-20T09:28:26;7.68;;;5.47;;
28587;SDS011;15787;49.662;10.162;2023-08-20T09:30:59;5.65;;;4.75;;
28587;SDS011;15787;49.662;10.162;2023-08-20T09:33:34;6.95;;;5.18;;
28587;SDS011;15787;49.662;10.162;2023-08-20T09:36:09;8.07;;;5.00;;
28587;SDS011;15787;49.662;10.162;2023-08-20T09:38:42;9.98;;;5.28;;
28587;SDS011;15787;49.662;10.162;2023-08-20T09:41:15;7.63;;;4.97;;
28587;SDS011;15787;49.662;10.162;2023-08-20T09:43:50;5.38;;;4.50;;
28587;SDS011;15787;49.662;10.162;2023-08-20T09:46:29;8.50;;;4.68;;
28587;SDS011;15787;49.662;10.162;2023-08-20T09:49:06;8.20;;;5.03;;
28587;SDS011;15787;49.662;10.162;2023-08-20T09:51:43;6.10;;;4.82;;
28587;SDS011;15787;49.662;10.162;2023-08-20T09:54:21;8.15;;;4.72;;
28587;SDS011;15787;49.662;10.162;2023-08-20T09:57:01;6.00;;;4.82;;
28587;SDS011;15787;49.662;10.162;2023-08-20T09:59:40;6.78;;;4.72;;
28587;SDS011;15787;49.662;10.162;2023-08-20T10:02:15;6.93;;;4.88;;
28587;SDS011;15787;49.662;10.162;2023-08-20T10:04:48;7.57;;;5.13;;
28587;SDS011;15787;49.662;10.162;2023-08-20T10:07:23;7.05;;;5.03;;
28587;SDS011;15787;49.662;10.162;2023-08-20T10:09:57;6.88;;;4.53;;
28587;SDS011;15787;49.662;10.162;2023-08-20T10:12:32;6.22;;;4.57;;
28587;SDS011;15787;49.662;10.162;2023-08-20T10:15:07;7.97;;;5.38;;
28587;SDS011;15787;49.662;10.162;2023-08-20T10:17:42;7.60;;;4.80;;
28587;SDS011;15787;49.662;10.162;2023-08-20T10:20:17;8.77;;;5.00;;
28587;SDS011;15787;49.662;10.162;2023-08-20T10:22:52;8.50;;;5.15;;
28587;SDS011;15787;49.662;10.162;2023-08-20T10:25:26;5.38;;;4.28;;
28587;SDS011;15787;49.662;10.162;2023-08-20T10:31:02;9.05;;;5.88;;
28587;SDS011;15787;49.662;10.162;2023-08-20T10:33:38;6.72;;;4.45;;
28587;SDS011;15787;49.662;10.162;2023-08-20T10:36:21;7.05;;;4.72;;
28587;SDS011;15787;49.662;10.162;2023-08-20T10:39:04;6.45;;;4.53;;
28587;SDS011;15787;49.662;10.162;2023-08-20T10:41:38;4.80;;;4.03;;
28587;SDS011;15787;49.662;10.162;2023-08-20T10:44:11;9.52;;;5.07;;
28587;SDS011;15787;49.662;10.162;2023-08-20T10:46:49;8.02;;;4.35;;
28587;SDS011;15787;49.662;10.162;2023-08-20T10:49:23;7.00;;;4.68;;
28587;SDS011;15787;49.662;10.162;2023-08-20T10:51:56;5.38;;;4.03;;
28587;SDS011;15787;49.662;10.162;2023-08-20T10:54:36;7.13;;;4.50;;
28587;SDS011;15787;49.662;10.162;2023-08-20T10:57:09;6.32;;;4.75;;
28587;SDS011;15787;49.662;10.162;2023-08-20T10:59:42;6.45;;;4.93;;
28587;SDS011;15787;49.662;10.162;2023-08-20T11:02:16;9.25;;;4.93;;
28587;SDS011;15787;49.662;10.162;2023-08-20T11:04:49;7.60;;;4.80;;
28587;SDS011;15787;49.662;10.162;2023-08-20T11:07:23;5.18;;;4.63;;
28587;SDS011;15787;49.662;10.162;2023-08-20T11:10:00;4.78;;;4.30;;
28587;SDS011;15787;49.662;10.162;2023-08-20T11:12:34;7.63;;;4.63;;
28587;SDS011;15787;49.662;10.162;2023-08-20T11:15:07;7.05;;;4.25;;
28587;SDS011;15787;49.662;10.162;2023-08-20T11:17:42;9.20;;;5.10;;
28587;SDS011;15787;49.662;10.162;2023-08-20T11:20:16;7.05;;;4.53;;
28587;SDS011;15787;49.662;10.162;2023-08-20T11:22:49;9.82;;;4.55;;
28587;SDS011;15787;49.662;10.162;2023-08-20T11:25:24;4.80;;;3.80;;
28587;SDS011;15787;49.662;10.162;2023-08-20T11:27:58;6.80;;;3.95;;
28587;SDS011;15787;49.662;10.162;2023-08-20T11:30:31;6.82;;;4.28;;
28587;SDS011;15787;49.662;10.162;2023-08-20T11:33:05;6.93;;;4.35;;
28587;SDS011;15787;49.662;10.162;2023-08-20T11:35:38;7.70;;;4.60;;
28587;SDS011;15787;49.662;10.162;2023-08-20T11:38:11;6.20;;;4.10;;
28587;SDS011;15787;49.662;10.162;2023-08-20T11:40:46;7.82;;;4.40;;
28587;SDS011;15787;49.662;10.162;2023-08-20T11:43:19;7.18;;;4.38;;
28587;SDS011;15787;49.662;10.162;2023-08-20T11:45:54;9.30;;;4.57;;
28587;SDS011;15787;49.662;10.162;2023-08-20T11:48:28;6.70;;;5.10;;
28587;SDS011;15787;49.662;10.162;2023-08-20T11:51:02;8.23;;;4.65;;
28587;SDS011;15787;49.662;10.162;2023-08-20T11:53:35;7.32;;;4.10;;
28587;SDS011;15787;49.662;10.162;2023-08-20T11:56:14;6.45;;;4.13;;
28587;SDS011;15787;49.662;10.162;2023-08-20T11:58:49;9.38;;;4.38;;
28587;SDS011;15787;49.662;10.162;2023-08-20T12:01:23;6.22;;;4.13;;
28587;SDS011;15787;49.662;10.162;2023-08-20T12:03:59;9.10;;;3.88;;
28587;SDS011;15787;49.662;10.162;2023-08-20T12:06:33;5.55;;;3.92;;
28587;SDS011;15787;49.662;10.162;2023-08-20T12:09:20;7.63;;;4.30;;
28587;SDS011;15787;49.662;10.162;2023-08-20T12:11:55;6.35;;;4.10;;
28587;SDS011;15787;49.662;10.162;2023-08-20T12:14:29;8.18;;;4.25;;
28587;SDS011;15787;49.662;10.162;2023-08-20T12:17:02;7.10;;;4.60;;
28587;SDS011;15787;49.662;10.162;2023-08-20T12:19:36;9.27;;;4.03;;
28587;SDS011;15787;49.662;10.162;2023-08-20T12:22:10;5.95;;;3.88;;
28587;SDS011;15787;49.662;10.162;2023-08-20T12:24:44;5.03;;;3.80;;
28587;SDS011;15787;49.662;10.162;2023-08-20T12:27:18;5.03;;;4.00;;
28587;SDS011;15787;49.662;10.162;2023-08-20T12:29:51;9.52;;;4.05;;
28587;SDS011;15787;49.662;10.162;2023-08-20T12:32:25;8.75;;;4.07;;
28587;SDS011;15787;49.662;10.162;2023-08-20T12:34:58;6.88;;;4.35;;
28587;SDS011;15787;49.662;10.162;2023-08-20T12:37:31;6.18;;;4.13;;
28587;SDS011;15787;49.662;10.162;2023-08-20T12:40:06;6.53;;;4.72;;
28587;SDS011;15787;49.662;10.162;2023-08-20T12:42:43;8.13;;;4.07;;
28587;SDS011;15787;49.662;10.162;2023-08-20T12:45:17;5.53;;;4.00;;
28587;SDS011;15787;49.662;10.162;2023-08-20T12:47:50;7.82;;;4.03;;
28587;SDS011;15787;49.662;10.162;2023-08-20T12:50:23;5.38;;;3.92;;
28587;SDS011;15787;49.662;10.162;2023-08-20T12:52:57;5.88;;;4.53;;
28587;SDS011;15787;49.662;10.162;2023-08-20T12:55:30;7.07;;;4.13;;
28587;SDS011;15787;49.662;10.162;2023-08-20T12:58:05;4.85;;;4.07;;
28587;SDS011;15787;49.662;10.162;2023-08-20T13:00:39;7.25;;;3.63;;
28587;SDS011;15787;49.662;10.162;2023-08-20T13:03:13;5.65;;;3.78;;
28587;SDS011;15787;49.662;10.162;2023-08-20T13:05:47;7.50;;;3.97;;
28587;SDS011;15787;49.662;10.162;2023-08-20T13:08:21;6.60;;;3.83;;
28587;SDS011;15787;49.662;10.162;2023-08-20T13:10:55;6.65;;;4.10;;
28587;SDS011;15787;49.662;10.162;2023-08-20T13:13:31;6.13;;;3.70;;
28587;SDS011;15787;49.662;10.162;2023-08-20T13:16:06;6.82;;;4.45;;
28587;SDS011;15787;49.662;10.162;2023-08-20T13:18:42;6.75;;;3.97;;
28587;SDS011;15787;49.662;10.162;2023-08-20T13:21:16;7.25;;;4.30;;
28587;SDS011;15787;49.662;10.162;2023-08-20T13:23:49;7.53;;;3.92;;
28587;SDS011;15787;49.662;10.162;2023-08-20T13:26:22;5.13;;;3.80;;
28587;SDS011;15787;49.662;10.162;2023-08-20T13:28:57;6.00;;;3.75;;
28587;SDS011;15787;49.662;10.162;2023-08-20T13:31:30;5.68;;;3.85;;
28587;SDS011;15787;49.662;10.162;2023-08-20T13:34:03;11.50;;;4.75;;
28587;SDS011;15787;49.662;10.162;2023-08-20T13:36:37;4.20;;;3.40;;
28587;SDS011;15787;49.662;10.162;2023-08-20T13:39:10;5.05;;;3.83;;
28587;SDS011;15787;49.662;10.162;2023-08-20T13:41:45;6.25;;;3.80;;
28587;SDS011;15787;49.662;10.162;2023-08-20T13:44:23;5.97;;;3.70;;
28587;SDS011;15787;49.662;10.162;2023-08-20T13:46:56;9.00;;;4.05;;
28587;SDS011;15787;49.662;10.162;2023-08-20T13:49:29;6.55;;;3.78;;
28587;SDS011;15787;49.662;10.162;2023-08-20T13:52:02;6.97;;;3.80;;
28587;SDS011;15787;49.662;10.162;2023-08-20T13:54:36;4.32;;;3.42;;
28587;SDS011;15787;49.662;10.162;2023-08-20T13:57:09;5.75;;;3.88;;
28587;SDS011;15787;49.662;10.162;2023-08-20T13:59:44;4.80;;;3.88;;
28587;SDS011;15787;49.662;10.162;2023-08-20T14:02:17;8.35;;;3.78;;
28587;SDS011;15787;49.662;10.162;2023-08-20T14:04:51;5.97;;;3.70;;
28587;SDS011;15787;49.662;10.162;2023-08-20T14:07:24;7.05;;;3.17;;
28587;SDS011;15787;49.662;10.162;2023-08-20T14:09:57;6.60;;;3.42;;
28587;SDS011;15787;49.662;10.162;2023-08-20T14:12:30;4.50;;;3.17;;
28587;SDS011;15787;49.662;10.162;2023-08-20T14:15:06;4.28;;;3.30;;
28587;SDS011;15787;49.662;10.162;2023-08-20T14:17:41;5.80;;;3.05;;
28587;SDS011;15787;49.662;10.162;2023-08-20T14:20:14;5.78;;;3.10;;
28587;SDS011;15787;49.662;10.162;2023-08-20T14:22:47;6.13;;;3.65;;
28587;SDS011;15787;49.662;10.162;2023-08-20T14:25:20;5.85;;;3.60;;
28587;SDS011;15787;49.662;10.162;2023-08-20T14:27:53;5.15;;;3.17;;
28587;SDS011;15787;49.662;10.162;2023-08-20T14:30:28;6.95;;;3.28;;
28587;SDS011;15787;49.662;10.162;2023-08-20T14:33:01;3.72;;;3.03;;
28587;SDS011;15787;49.662;10.162;2023-08-20T14:35:35;4.88;;;2.88;;
28587;SDS011;15787;49.662;10.162;2023-08-20T14:38:09;7.40;;;3.30;;
28587;SDS011;15787;49.662;10.162;2023-08-20T14:40:42;5.85;;;3.10;;
28587;SDS011;15787;49.662;10.162;2023-08-20T14:43:15;3.88;;;3.30;;
28587;SDS011;15787;49.662;10.162;2023-08-20T14:45:50;9.27;;;3.72;;
28587;SDS011;15787;49.662;10.162;2023-08-20T14:48:23;7.07;;;3.80;;
28587;SDS011;15787;49.662;10.162;2023-08-20T14:50:56;5.35;;;3.10;;
28587;SDS011;15787;49.662;10.162;2023-08-20T14:53:30;3.80;;;3.15;;
28587;SDS011;15787;49.662;10.162;2023-08-20T14:56:03;9.57;;;3.45;;
28587;SDS011;15787;49.662;10.162;2023-08-20T14:58:37;6.97;;;3.53;;
28587;SDS011;15787;49.662;10.162;2023-08-20T15:01:12;4.22;;;3.20;;
28587;SDS011;15787;49.662;10.162;2023-08-20T15:03:45;8.90;;;4.28;;
28587;SDS011;15787;49.662;10.162;2023-08-20T15:06:18;5.95;;;3.60;;
28587;SDS011;15787;49.662;10.162;2023-08-20T15:08:53;5.07;;;3.58;;
28587;SDS011;15787;49.662;10.162;2023-08-20T15:11:26;8.55;;;3.35;;
28587;SDS011;15787;49.662;10.162;2023-08-20T15:13:59;4.50;;;3.53;;
28587;SDS011;15787;49.662;10.162;2023-08-20T15:16:34;5.35;;;3.15;;
28587;SDS011;15787;49.662;10.162;2023-08-20T15:19:07;5.55;;;3.65;;
28587;SDS011;15787;49.662;10.162;2023-08-20T15:21:40;4.82;;;3.10;;
28587;SDS011;15787;49.662;10.162;2023-08-20T15:24:14;4.85;;;3.30;;